Time;durP1;ratioP1;P1;durP2;ratioP2;P2;SDS_P1;SDS_P2;PMS_P1;PMS_P2;Temp;Humidity;BMP_temperature;BMP_pressure;BME280_temperature;BME280_humidity;BME280_pressure;Samples;Min_cycle;Max_cycle;Signal;HPM_P1;HPM_P2
2022/12/14 00:00:57;;;;;;;40.65;25.33;;;;;;;;;;5054702;28;20364;-65
2022/12/14 00:03:23;;;;;;;42.10;26.40;;;;;;;;;;5054662;28;20060;-65
2022/12/14 00:05:50;;;;;;;38.92;24.65;;;;;;;;;;5054752;28;20099;-65
2022/12/14 00:08:16;;;;;;;43.28;26.02;;;;;;;;;;5054703;28;20568;-65
2022/12/14 00:10:43;;;;;;;44.38;28.30;;;;;;;;;;5054911;28;20539;-65
2022/12/14 00:13:12;;;;;;;50.25;29.48;;;;;;;;;;5054967;28;20137;-65
2022/12/14 00:15:38;;;;;;;45.85;26.05;;;;;;;;;;5054999;28;20139;-65
2022/12/14 00:18:05;;;;;;;52.10;30.60;;;;;;;;;;5054486;28;20493;-65
2022/12/14 00:20:31;;;;;;;50.55;30.10;;;;;;;;;;5054833;28;20132;-65
2022/12/14 00:22:58;;;;;;;48.70;28.77;;;;;;;;;;5054344;28;20093;-65
2022/12/14 00:25:24;;;;;;;51.40;31.83;;;;;;;;;;5054765;28;20132;-65
2022/12/14 00:27:51;;;;;;;49.88;28.63;;;;;;;;;;5054346;28;20088;-65
2022/12/14 00:30:18;;;;;;;48.17;28.23;;;;;;;;;;5054307;28;20045;-65
2022/12/14 00:32:45;;;;;;;44.00;27.33;;;;;;;;;;5054616;28;20080;-65
2022/12/14 00:35:14;;;;;;;49.13;30.13;;;;;;;;;;5054281;28;20831;-65
2022/12/14 00:37:40;;;;;;;49.97;29.25;;;;;;;;;;5054315;28;20777;-65
2022/12/14 00:40:07;;;;;;;46.00;27.85;;;;;;;;;;5054378;28;20113;-65
2022/12/14 00:42:34;;;;;;;49.40;30.73;;;;;;;;;;5050710;28;20049;-65
2022/12/14 00:45:01;;;;;;;48.25;29.13;;;;;;;;;;5054199;28;20049;-65
2022/12/14 00:47:27;;;;;;;57.05;38.78;;;;;;;;;;5053954;28;20084;-65
2022/12/14 00:49:54;;;;;;;48.30;30.17;;;;;;;;;;5053547;28;20128;-65
2022/12/14 00:52:20;;;;;;;53.17;34.90;;;;;;;;;;5054024;28;20052;-65
2022/12/14 00:54:46;;;;;;;45.05;24.98;;;;;;;;;;5054189;28;20466;-65
2022/12/14 00:57:13;;;;;;;44.22;26.42;;;;;;;;;;5053792;28;20088;-65
2022/12/14 00:59:39;;;;;;;52.95;31.83;;;;;;;;;;5053974;28;20087;-65
2022/12/14 01:02:06;;;;;;;41.83;26.45;;;;;;;;;;5053741;28;20120;-65
2022/12/14 01:04:32;;;;;;;46.97;26.67;;;;;;;;;;5053867;28;20072;-65
2022/12/14 01:06:59;;;;;;;46.60;28.13;;;;;;;;;;5053928;28;20104;-65
2022/12/14 01:09:25;;;;;;;44.03;26.13;;;;;;;;;;5053764;28;20051;-65
2022/12/14 01:11:52;;;;;;;47.42;27.67;;;;;;;;;;5053533;28;20037;-65
2022/12/14 01:14:19;;;;;;;50.13;29.90;;;;;;;;;;5053838;28;20136;-65
2022/12/14 01:16:46;;;;;;;48.10;27.08;;;;;;;;;;5053747;28;20124;-65
2022/12/14 01:19:13;;;;;;;59.58;32.55;;;;;;;;;;5053766;28;20057;-65
2022/12/14 01:21:39;;;;;;;56.10;32.60;;;;;;;;;;5053298;28;20519;-65
2022/12/14 01:24:07;;;;;;;77.03;40.33;;;;;;;;;;5053275;28;20080;-65
2022/12/14 01:26:38;;;;;;;50.20;26.35;;;;;;;;;;5053286;28;20045;-65
2022/12/14 01:29:05;;;;;;;45.17;26.27;;;;;;;;;;5053284;28;20077;-65
2022/12/14 01:31:33;;;;;;;75.40;38.33;;;;;;;;;;5053397;28;20468;-65
2022/12/14 01:33:59;;;;;;;;;;;;;;;;;;5053555;28;20049;-65
2022/12/14 01:36:27;;;;;;;46.03;24.63;;;;;;;;;;5053128;28;20015;-65
2022/12/14 01:38:57;;;;;;;44.22;26.05;;;;;;;;;;5052982;28;20561;-65
2022/12/14 01:41:28;;;;;;;50.20;27.00;;;;;;;;;;5053335;28;20055;-65
2022/12/14 01:43:56;;;;;;;53.10;26.40;;;;;;;;;;5053086;28;20124;-65
2022/12/14 01:46:25;;;;;;;51.03;28.42;;;;;;;;;;5053106;28;20527;-65
2022/12/14 01:48:54;;;;;;;60.40;32.20;;;;;;;;;;5052792;28;20449;-65
2022/12/14 01:51:22;;;;;;;47.03;27.20;;;;;;;;;;5052881;28;20135;-65
2022/12/14 01:53:48;;;;;;;44.75;24.55;;;;;;;;;;5053005;28;20131;-65
2022/12/14 01:56:15;;;;;;;42.55;24.75;;;;;;;;;;5052762;28;20587;-65
2022/12/14 01:58:42;;;;;;;45.47;24.40;;;;;;;;;;5052550;28;20092;-65
2022/12/14 02:01:10;;;;;;;51.22;27.95;;;;;;;;;;5052039;28;20128;-65
2022/12/14 02:03:39;;;;;;;46.97;25.52;;;;;;;;;;5052393;28;20067;-65
2022/12/14 02:06:08;;;;;;;40.65;23.27;;;;;;;;;;5052767;28;20115;-65
2022/12/14 02:08:35;;;;;;;66.20;33.90;;;;;;;;;;5052784;28;20128;-65
2022/12/14 02:11:02;;;;;;;53.37;29.73;;;;;;;;;;5052736;28;20119;-65
2022/12/14 02:13:33;;;;;;;45.83;25.52;;;;;;;;;;5052850;28;20288;-65
2022/12/14 02:15:59;;;;;;;135.00;61.08;;;;;;;;;;5052366;28;20497;-65
2022/12/14 02:18:27;;;;;;;88.70;42.38;;;;;;;;;;5052569;28;20053;-65
2022/12/14 02:21:12;;;;;;;43.53;24.63;;;;;;;;;;5052551;28;20132;-65
2022/12/14 02:23:52;;;;;;;60.95;31.98;;;;;;;;;;5052398;28;20120;-65
2022/12/14 02:26:37;;;;;;;48.90;26.80;;;;;;;;;;5052338;28;20135;-65
2022/12/14 02:29:21;;;;;;;41.90;24.30;;;;;;;;;;5052148;28;20124;-65
2022/12/14 02:32:06;;;;;;;39.95;24.17;;;;;;;;;;5052081;28;20127;-65
2022/12/14 02:34:35;;;;;;;38.03;22.58;;;;;;;;;;5052084;28;20059;-65
2022/12/14 02:37:05;;;;;;;39.95;23.70;;;;;;;;;;5051934;28;20055;-65
2022/12/14 02:39:46;;;;;;;41.70;23.10;;;;;;;;;;5052066;28;20103;-65
2022/12/14 02:42:14;;;;;;;39.97;23.05;;;;;;;;;;5051997;28;20056;-65
2022/12/14 02:44:50;;;;;;;40.22;23.20;;;;;;;;;;5051744;28;20055;-65
2022/12/14 02:47:28;;;;;;;38.10;22.77;;;;;;;;;;5052339;28;20572;-65
2022/12/14 02:50:06;;;;;;;38.72;22.08;;;;;;;;;;5050928;28;20129;-65
2022/12/14 02:52:32;;;;;;;40.15;22.30;;;;;;;;;;5050638;28;20450;-65
2022/12/14 02:55:05;;;;;;;37.17;21.48;;;;;;;;;;5051931;28;20134;-65
2022/12/14 02:57:44;;;;;;;38.55;21.70;;;;;;;;;;5051644;28;20137;-65
2022/12/14 03:00:11;;;;;;;39.97;22.45;;;;;;;;;;5051599;28;20056;-65
2022/12/14 03:02:39;;;;;;;41.05;23.65;;;;;;;;;;5051703;28;20048;-65
2022/12/14 03:05:05;;;;;;;;;;;;;;;;;;5051924;28;20103;-65
2022/12/14 03:07:37;;;;;;;37.65;22.60;;;;;;;;;;5051733;28;19933;-65
2022/12/14 03:10:23;;;;;;;41.13;22.52;;;;;;;;;;5051742;28;20051;-65
2022/12/14 03:12:54;;;;;;;39.13;22.13;;;;;;;;;;5050133;28;20128;-65
2022/12/14 03:15:22;;;;;;;39.63;22.88;;;;;;;;;;5051699;28;20048;-65
2022/12/14 03:17:48;;;;;;;;;;;;;;;;;;5051909;28;20480;-65
2022/12/14 03:20:19;;;;;;;42.17;22.35;;;;;;;;;;5051403;28;20438;-65
2022/12/14 03:23:06;;;;;;;38.80;23.23;;;;;;;;;;5051932;28;20048;-65
2022/12/14 03:25:43;;;;;;;39.38;22.85;;;;;;;;;;5051105;28;20132;-65
2022/12/14 03:28:14;;;;;;;38.00;22.23;;;;;;;;;;5051480;28;20136;-65
2022/12/14 03:30:41;;;;;;;37.75;22.02;;;;;;;;;;5051274;28;20044;-65
2022/12/14 03:33:27;;;;;;;34.28;21.00;;;;;;;;;;5051374;28;20053;-65
2022/12/14 03:35:57;;;;;;;37.53;21.88;;;;;;;;;;5051560;28;20440;-65
2022/12/14 03:38:34;;;;;;;35.88;21.80;;;;;;;;;;5051400;28;20152;-65
2022/12/14 03:41:07;;;;;;;33.38;20.77;;;;;;;;;;5051059;28;20063;-65
2022/12/14 03:43:41;;;;;;;35.53;21.00;;;;;;;;;;5051373;28;20132;-65
2022/12/14 03:46:22;;;;;;;35.75;20.42;;;;;;;;;;5051292;28;20404;-65
2022/12/14 03:48:54;;;;;;;37.03;20.92;;;;;;;;;;5051187;28;20560;-65
2022/12/14 03:51:28;;;;;;;37.67;21.83;;;;;;;;;;5051318;28;20127;-65
2022/12/14 03:54:07;;;;;;;36.58;21.50;;;;;;;;;;5051499;28;20056;-65
2022/12/14 03:56:33;;;;;;;39.40;22.02;;;;;;;;;;5051179;28;20049;-65
2022/12/14 03:59:00;;;;;;;35.53;20.98;;;;;;;;;;5051289;28;20136;-65
2022/12/14 04:01:38;;;;;;;36.20;21.05;;;;;;;;;;5051225;28;20135;-65
2022/12/14 04:04:05;;;;;;;33.75;20.45;;;;;;;;;;5051150;28;20048;-65
2022/12/14 04:06:45;;;;;;;36.63;21.15;;;;;;;;;;5051177;28;20049;-65
2022/12/14 04:09:17;;;;;;;37.92;21.48;;;;;;;;;;5051057;28;20120;-65
2022/12/14 04:20:12;;;;;;;36.05;21.42;;;;;;;;;;5051182;28;20128;-65
2022/12/14 04:22:42;;;;;;;37.33;21.90;;;;;;;;;;5050817;28;20055;-65
2022/12/14 04:28:00;;;;;;;39.38;22.65;;;;;;;;;;5054279;28;20092;-64
2022/12/14 04:30:28;;;;;;;38.80;21.20;;;;;;;;;;5054631;28;20132;-65
2022/12/14 04:32:56;;;;;;;37.13;21.38;;;;;;;;;;5054601;28;20476;-65
2022/12/14 04:35:24;;;;;;;37.20;22.08;;;;;;;;;;5054262;28;20061;-65
2022/12/14 04:37:56;;;;;;;36.58;21.27;;;;;;;;;;5054218;28;20132;-65
2022/12/14 04:40:25;;;;;;;38.20;22.35;;;;;;;;;;5054479;28;20111;-65
2022/12/14 04:42:59;;;;;;;37.90;22.05;;;;;;;;;;5054401;28;20044;-65
2022/12/14 04:45:47;;;;;;;35.97;22.20;;;;;;;;;;5054057;28;20141;-65
2022/12/14 04:48:17;;;;;;;38.35;21.33;;;;;;;;;;5054282;28;20515;-65
2022/12/14 04:50:44;;;;;;;37.15;23.23;;;;;;;;;;5053952;28;20500;-65
2022/12/14 04:53:24;;;;;;;36.83;22.33;;;;;;;;;;5054280;28;20127;-65
2022/12/14 04:56:17;;;;;;;35.83;21.27;;;;;;;;;;5054101;28;20053;-65
2022/12/14 04:58:44;;;;;;;37.67;21.65;;;;;;;;;;5053051;28;20123;-65
2022/12/14 05:01:10;;;;;;;36.95;21.63;;;;;;;;;;5053735;28;20076;-65
2022/12/14 05:03:43;;;;;;;39.53;21.77;;;;;;;;;;5053840;28;20063;-65
2022/12/14 05:06:23;;;;;;;37.58;22.40;;;;;;;;;;5053837;28;20049;-65
2022/12/14 05:09:10;;;;;;;39.55;22.48;;;;;;;;;;5053892;28;20128;-65
2022/12/14 05:11:49;;;;;;;38.75;22.02;;;;;;;;;;5053647;28;20128;-65
2022/12/14 05:14:30;;;;;;;39.80;22.85;;;;;;;;;;5053656;28;20504;-65
2022/12/14 05:16:57;;;;;;;41.13;22.33;;;;;;;;;;5053450;28;20088;-65
2022/12/14 05:19:27;;;;;;;39.72;22.27;;;;;;;;;;5053666;28;20504;-65
2022/12/14 05:21:54;;;;;;;36.90;21.73;;;;;;;;;;5053787;28;20072;-65
2022/12/14 05:24:20;;;;;;;38.35;22.38;;;;;;;;;;5053389;28;20092;-65
2022/12/14 05:26:47;;;;;;;37.97;22.25;;;;;;;;;;5053134;28;20053;-65
2022/12/14 05:29:13;;;;;;;37.45;21.40;;;;;;;;;;5053441;28;20072;-65
2022/12/14 05:31:40;;;;;;;39.17;20.85;;;;;;;;;;5053588;28;20051;-65
2022/12/14 05:34:06;;;;;;;40.58;21.52;;;;;;;;;;5053112;28;20544;-65
2022/12/14 05:36:33;;;;;;;39.50;22.75;;;;;;;;;;5052438;28;20069;-65
2022/12/14 05:38:59;;;;;;;36.80;20.83;;;;;;;;;;5053320;28;20471;-65
2022/12/14 05:41:26;;;;;;;37.95;21.50;;;;;;;;;;5053355;28;20053;-65
2022/12/14 05:43:52;;;;;;;40.17;22.35;;;;;;;;;;5052868;28;20044;-65
2022/12/14 05:46:18;;;;;;;41.72;21.35;;;;;;;;;;5052858;28;20571;-65
2022/12/14 05:48:45;;;;;;;40.05;21.02;;;;;;;;;;5052907;28;20052;-65
2022/12/14 05:51:15;;;;;;;44.47;23.17;;;;;;;;;;5052840;28;20049;-65
2022/12/14 05:53:41;;;;;;;40.38;21.95;;;;;;;;;;5053106;28;20135;-65
2022/12/14 05:56:09;;;;;;;40.88;22.67;;;;;;;;;;5052705;28;20584;-65
2022/12/14 05:58:36;;;;;;;43.58;22.63;;;;;;;;;;5052634;28;20568;-65
2022/12/14 06:01:03;;;;;;;42.78;23.10;;;;;;;;;;5052938;28;20460;-65
2022/12/14 06:03:29;;;;;;;38.17;22.33;;;;;;;;;;5052182;28;20556;-65
2022/12/14 06:06:00;;;;;;;40.90;22.00;;;;;;;;;;5052918;28;20170;-65
2022/12/14 06:08:29;;;;;;;41.28;22.30;;;;;;;;;;5052805;28;20493;-65
2022/12/14 06:11:07;;;;;;;41.70;21.92;;;;;;;;;;5052363;28;20127;-65
2022/12/14 06:13:34;;;;;;;40.28;21.95;;;;;;;;;;5052469;28;20041;-65
2022/12/14 06:16:07;;;;;;;38.80;21.02;;;;;;;;;;5052596;28;20124;-65
2022/12/14 06:18:33;;;;;;;42.95;21.88;;;;;;;;;;5052383;28;20492;-65
2022/12/14 06:21:00;;;;;;;38.53;22.02;;;;;;;;;;5052376;28;20044;-65
2022/12/14 06:23:26;;;;;;;38.88;22.33;;;;;;;;;;5052277;28;20489;-65
2022/12/14 06:25:54;;;;;;;38.65;21.50;;;;;;;;;;5051830;28;20485;-65
2022/12/14 06:28:21;;;;;;;39.43;22.57;;;;;;;;;;5052427;28;20088;-65
2022/12/14 06:30:47;;;;;;;40.45;21.58;;;;;;;;;;5052256;28;20041;-65
2022/12/14 06:33:14;;;;;;;38.67;20.38;;;;;;;;;;5052146;28;20114;-65
2022/12/14 06:35:44;;;;;;;38.33;20.70;;;;;;;;;;5051959;28;20055;-65
2022/12/14 06:38:11;;;;;;;40.15;21.33;;;;;;;;;;5051968;28;20135;-65
2022/12/14 06:40:37;;;;;;;38.42;21.38;;;;;;;;;;5052209;28;20045;-64
2022/12/14 06:43:03;;;;;;;38.50;20.60;;;;;;;;;;5052046;28;20051;-65
2022/12/14 06:45:30;;;;;;;40.47;22.15;;;;;;;;;;5052330;28;20130;-65
2022/12/14 06:47:57;;;;;;;40.15;20.25;;;;;;;;;;5051400;28;20049;-65
2022/12/14 06:50:24;;;;;;;39.20;20.05;;;;;;;;;;5051764;28;20128;-65
2022/12/14 06:52:50;;;;;;;41.78;22.38;;;;;;;;;;5051911;28;20461;-65
2022/12/14 06:55:17;;;;;;;42.13;22.00;;;;;;;;;;5051930;28;20140;-65
2022/12/14 06:57:43;;;;;;;40.20;20.73;;;;;;;;;;5051811;28;20049;-65
2022/12/14 07:00:13;;;;;;;40.22;21.13;;;;;;;;;;5051671;28;20055;-66
2022/12/14 07:02:39;;;;;;;38.33;20.13;;;;;;;;;;5033065;28;20053;-65
2022/12/14 07:05:06;;;;;;;37.00;20.13;;;;;;;;;;5031519;28;20072;-65
2022/12/14 07:07:32;;;;;;;39.78;19.63;;;;;;;;;;5045685;28;20567;-65
2022/12/14 07:09:59;;;;;;;36.70;20.00;;;;;;;;;;5051895;28;20159;-65
2022/12/14 07:12:26;;;;;;;38.58;20.27;;;;;;;;;;5049907;28;20385;-65
2022/12/14 07:14:53;;;;;;;36.33;19.77;;;;;;;;;;5031180;28;20054;-66
2022/12/14 07:17:20;;;;;;;35.90;19.08;;;;;;;;;;5031191;28;20135;-65
2022/12/14 07:19:46;;;;;;;36.30;19.92;;;;;;;;;;5031119;28;20055;-66
2022/12/14 07:22:14;;;;;;;38.70;21.35;;;;;;;;;;5042460;28;20131;-65
2022/12/14 07:24:40;;;;;;;35.80;20.17;;;;;;;;;;5051273;28;20049;-65
2022/12/14 07:27:07;;;;;;;39.33;21.20;;;;;;;;;;5051404;28;20052;-65
2022/12/14 07:29:33;;;;;;;36.75;20.45;;;;;;;;;;5051351;28;20055;-65
2022/12/14 07:32:00;;;;;;;34.35;18.27;;;;;;;;;;5051607;28;20045;-65
2022/12/14 07:34:27;;;;;;;37.33;19.20;;;;;;;;;;5051239;28;20080;-65
2022/12/14 07:36:53;;;;;;;35.65;20.10;;;;;;;;;;5051496;28;20131;-66
2022/12/14 07:39:20;;;;;;;34.28;18.85;;;;;;;;;;5051285;28;20139;-65
2022/12/14 07:41:47;;;;;;;36.40;19.90;;;;;;;;;;5051167;28;20124;-64
2022/12/14 07:44:14;;;;;;;33.40;19.30;;;;;;;;;;5048534;28;20580;-65
2022/12/14 07:46:40;;;;;;;35.95;17.77;;;;;;;;;;5037800;28;20049;-65
2022/12/14 07:49:08;;;;;;;34.25;18.10;;;;;;;;;;5030779;28;20518;-65
2022/12/14 07:51:36;;;;;;;39.17;21.35;;;;;;;;;;5044928;28;20055;-65
2022/12/14 07:54:02;;;;;;;;;;;;;;;;;;5040077;28;20071;-65
2022/12/14 07:56:30;;;;;;;28.70;16.95;;;;;;;;;;5036089;28;19927;-64
2022/12/14 07:58:57;;;;;;;34.80;18.38;;;;;;;;;;5050681;28;20049;-65
2022/12/14 08:04:46;;;;;;;29.92;17.75;;;;;;;;;;5055014;28;20397;-65
2022/12/14 08:07:12;;;;;;;32.50;17.67;;;;;;;;;;5055099;28;20106;-65
2022/12/14 08:09:39;;;;;;;30.73;18.65;;;;;;;;;;5054838;28;20141;-65
2022/12/14 08:12:05;;;;;;;40.72;20.05;;;;;;;;;;5054699;28;20045;-65
2022/12/14 08:14:31;;;;;;;32.67;18.27;;;;;;;;;;5054985;28;20135;-65
2022/12/14 08:16:58;;;;;;;32.60;18.77;;;;;;;;;;5054670;28;20059;-65
2022/12/14 08:19:24;;;;;;;36.42;18.73;;;;;;;;;;5054602;28;20066;-65
2022/12/14 08:21:51;;;;;;;32.95;18.85;;;;;;;;;;5054898;28;20159;-65
2022/12/14 08:24:17;;;;;;;30.20;17.65;;;;;;;;;;5054810;28;20136;-65
2022/12/14 08:26:45;;;;;;;29.50;16.75;;;;;;;;;;5054456;28;20107;-65
2022/12/14 08:29:14;;;;;;;33.42;16.83;;;;;;;;;;5054702;28;20115;-65
2022/12/14 08:31:41;;;;;;;30.23;17.33;;;;;;;;;;5054533;28;20049;-64
2022/12/14 08:34:08;;;;;;;31.80;18.15;;;;;;;;;;5054263;28;20098;-65
2022/12/14 08:36:34;;;;;;;35.33;19.50;;;;;;;;;;5054258;28;20049;-65
2022/12/14 08:39:03;;;;;;;40.92;20.45;;;;;;;;;;5054461;28;20369;-65
2022/12/14 08:41:29;;;;;;;34.92;19.40;;;;;;;;;;5054462;28;20048;-65
2022/12/14 08:43:57;;;;;;;31.40;18.60;;;;;;;;;;5054242;28;20123;-65
2022/12/14 08:46:24;;;;;;;32.75;19.13;;;;;;;;;;5054185;28;20571;-65
2022/12/14 08:48:51;;;;;;;33.47;18.73;;;;;;;;;;5052823;28;20183;-65
2022/12/14 08:51:18;;;;;;;30.48;17.52;;;;;;;;;;5053986;28;20368;-65
2022/12/14 08:53:46;;;;;;;28.13;16.52;;;;;;;;;;5054282;28;20429;-65
2022/12/14 08:56:12;;;;;;;;;;;;;;;;;;5054356;28;20135;-65
2022/12/14 08:58:39;;;;;;;29.65;16.23;;;;;;;;;;5053927;28;19963;-65
2022/12/14 09:01:13;;;;;;;31.67;17.25;;;;;;;;;;5054182;28;20119;-65
2022/12/14 09:03:41;;;;;;;32.15;17.20;;;;;;;;;;5053790;28;20049;-65
2022/12/14 09:06:09;;;;;;;30.65;16.77;;;;;;;;;;5053672;28;20081;-65
2022/12/14 09:08:36;;;;;;;31.20;16.23;;;;;;;;;;5053820;28;20124;-65
2022/12/14 09:11:03;;;;;;;29.40;15.25;;;;;;;;;;5053578;28;20397;-65
2022/12/14 09:13:30;;;;;;;28.35;15.32;;;;;;;;;;5053596;28;20076;-65
2022/12/14 09:16:07;;;;;;;27.10;14.32;;;;;;;;;;5053596;28;20492;-65
2022/12/14 09:18:34;;;;;;;28.08;16.48;;;;;;;;;;5053474;28;20057;-65
2022/12/14 09:21:01;;;;;;;28.60;15.98;;;;;;;;;;5053471;28;20071;-65
2022/12/14 09:23:28;;;;;;;29.13;15.50;;;;;;;;;;5053560;28;20095;-65
2022/12/14 09:26:05;;;;;;;28.55;16.35;;;;;;;;;;5053389;28;20061;-65
2022/12/14 09:28:32;;;;;;;27.27;16.00;;;;;;;;;;5053317;28;20048;-65
2022/12/14 09:31:03;;;;;;;26.80;15.90;;;;;;;;;;5053420;28;20041;-65
2022/12/14 09:33:30;;;;;;;27.45;16.55;;;;;;;;;;5053505;28;20080;-65
2022/12/14 09:36:04;;;;;;;34.30;18.65;;;;;;;;;;5053482;28;20056;-65
2022/12/14 09:38:32;;;;;;;29.98;17.70;;;;;;;;;;5053269;28;20139;-65
2022/12/14 09:41:01;;;;;;;33.45;19.00;;;;;;;;;;5053100;28;20378;-65
2022/12/14 09:43:32;;;;;;;30.85;19.02;;;;;;;;;;5053094;28;20049;-65
2022/12/14 09:46:14;;;;;;;28.52;17.08;;;;;;;;;;5053172;28;20313;-65
2022/12/14 09:48:41;;;;;;;29.58;18.00;;;;;;;;;;5053258;28;20045;-65
2022/12/14 09:51:12;;;;;;;23.75;15.65;;;;;;;;;;5052947;28;20096;-65
2022/12/14 09:53:40;;;;;;;26.02;16.00;;;;;;;;;;5053200;28;20055;-65
2022/12/14 09:56:09;;;;;;;26.58;15.18;;;;;;;;;;5052679;28;20048;-65
2022/12/14 09:58:37;;;;;;;24.08;15.45;;;;;;;;;;5052602;28;20049;-65
2022/12/14 10:01:12;;;;;;;22.27;14.98;;;;;;;;;;5052892;28;20051;-65
2022/12/14 10:03:39;;;;;;;26.92;16.00;;;;;;;;;;5052878;28;20044;-65
2022/12/14 10:06:25;;;;;;;27.33;16.33;;;;;;;;;;5053051;28;20045;-65
2022/12/14 10:09:02;;;;;;;27.88;16.73;;;;;;;;;;5052468;28;20128;-65
2022/12/14 10:11:39;;;;;;;25.35;16.25;;;;;;;;;;5052736;28;20041;-65
2022/12/14 10:14:24;;;;;;;26.40;16.00;;;;;;;;;;5052850;28;20037;-65
2022/12/14 10:17:02;;;;;;;25.92;16.45;;;;;;;;;;5052598;28;20049;-65
2022/12/14 10:19:48;;;;;;;28.42;17.60;;;;;;;;;;5052659;28;20053;-65
2022/12/14 10:22:17;;;;;;;28.70;17.83;;;;;;;;;;5051839;28;20055;-65
2022/12/14 10:24:49;;;;;;;29.20;18.13;;;;;;;;;;5052270;28;20131;-65
2022/12/14 10:27:26;;;;;;;32.67;22.20;;;;;;;;;;5052094;28;20144;-65
2022/12/14 10:29:58;;;;;;;30.97;20.03;;;;;;;;;;5052207;28;20132;-65
2022/12/14 10:32:31;;;;;;;29.30;19.35;;;;;;;;;;5052435;28;20123;-65
2022/12/14 10:35:00;;;;;;;25.27;16.02;;;;;;;;;;5052068;28;20560;-65
2022/12/14 10:37:26;;;;;;;24.52;14.48;;;;;;;;;;5052220;28;20063;-65
2022/12/14 10:40:08;;;;;;;24.15;14.52;;;;;;;;;;5051946;28;20087;-65
2022/12/14 10:42:51;;;;;;;25.00;14.85;;;;;;;;;;5052003;28;20053;-65
2022/12/14 10:45:31;;;;;;;23.77;14.43;;;;;;;;;;5052049;28;20056;-65
2022/12/14 10:48:06;;;;;;;;;;;;;;;;;;5052539;28;20048;-65
2022/12/14 10:50:42;;;;;;;21.65;12.32;;;;;;;;;;5052107;28;20011;-65
2022/12/14 10:53:18;;;;;;;24.10;13.13;;;;;;;;;;5051749;28;20045;-65
2022/12/14 10:55:45;;;;;;;20.60;13.30;;;;;;;;;;5051851;28;20099;-65
2022/12/14 10:58:11;;;;;;;25.52;16.10;;;;;;;;;;5052052;28;20168;-65
2022/12/14 11:00:38;;;;;;;24.95;14.57;;;;;;;;;;5051541;28;20136;-65
2022/12/14 11:03:10;;;;;;;24.52;14.65;;;;;;;;;;5051686;28;20504;-65
2022/12/14 11:05:39;;;;;;;23.83;14.25;;;;;;;;;;5051741;28;20131;-65
2022/12/14 11:08:06;;;;;;;22.10;14.32;;;;;;;;;;5051864;28;20132;-65
2022/12/14 11:10:35;;;;;;;25.13;14.90;;;;;;;;;;5051777;28;20076;-65
2022/12/14 11:13:03;;;;;;;24.70;16.10;;;;;;;;;;5051389;28;20053;-65
2022/12/14 11:15:29;;;;;;;;;;;;;;;;;;5052167;28;20140;-65
2022/12/14 11:18:19;;;;;;;21.42;13.52;;;;;;;;;;5051752;28;20023;-65
2022/12/14 11:20:50;;;;;;;24.92;14.57;;;;;;;;;;5038964;28;20060;-65
2022/12/14 11:23:19;;;;;;;24.00;14.18;;;;;;;;;;5051715;28;20048;-65
2022/12/14 11:25:47;;;;;;;24.92;16.08;;;;;;;;;;5051206;28;20048;-65
2022/12/14 11:28:19;;;;;;;24.80;16.20;;;;;;;;;;5051791;28;20055;-65
2022/12/14 11:31:01;;;;;;;28.30;17.33;;;;;;;;;;5051258;28;20051;-65
2022/12/14 11:33:39;;;;;;;23.35;15.25;;;;;;;;;;5052530;28;20400;-65
2022/12/14 11:36:07;;;;;;;23.58;14.38;;;;;;;;;;5055367;28;20107;-65
2022/12/14 11:38:33;;;;;;;24.75;15.07;;;;;;;;;;5055873;28;20144;-65
2022/12/14 11:41:01;;;;;;;24.92;14.85;;;;;;;;;;5055455;28;20132;-65
2022/12/14 11:43:39;;;;;;;25.17;15.98;;;;;;;;;;5055655;28;20454;-65
2022/12/14 11:46:06;;;;;;;24.98;15.63;;;;;;;;;;5055100;28;20451;-65
2022/12/14 11:48:37;;;;;;;25.45;15.63;;;;;;;;;;5055147;28;20049;-65
2022/12/14 11:51:10;;;;;;;28.63;16.17;;;;;;;;;;5055280;28;20078;-65
2022/12/14 11:53:37;;;;;;;23.55;15.60;;;;;;;;;;5055066;28;20084;-66
2022/12/14 11:56:05;;;;;;;24.70;16.60;;;;;;;;;;5055020;28;20139;-66
2022/12/14 11:58:45;;;;;;;26.75;15.95;;;;;;;;;;5054913;28;20148;-66
2022/12/14 12:01:13;;;;;;;26.10;16.15;;;;;;;;;;5054797;28;20606;-65
2022/12/14 12:03:42;;;;;;;24.55;15.73;;;;;;;;;;5054986;28;20049;-65
2022/12/14 12:06:10;;;;;;;27.52;16.40;;;;;;;;;;5054910;28;20099;-65
2022/12/14 12:08:37;;;;;;;27.00;17.85;;;;;;;;;;5055099;28;20385;-66
2022/12/14 12:11:13;;;;;;;28.38;17.45;;;;;;;;;;5055010;28;20128;-66
2022/12/14 12:13:40;;;;;;;32.22;18.70;;;;;;;;;;5054681;28;20051;-66
2022/12/14 12:16:10;;;;;;;32.70;19.55;;;;;;;;;;5054612;28;20531;-66
2022/12/14 12:18:43;;;;;;;33.95;20.45;;;;;;;;;;5055111;28;20048;-65
2022/12/14 12:21:17;;;;;;;34.70;20.27;;;;;;;;;;5054722;28;20049;-65
2022/12/14 12:24:02;;;;;;;33.15;19.65;;;;;;;;;;5054417;28;20131;-65
2022/12/14 12:26:47;;;;;;;36.50;20.83;;;;;;;;;;5054215;28;20088;-65
2022/12/14 12:29:24;;;;;;;34.55;20.77;;;;;;;;;;5054358;28;20080;-65
2022/12/14 12:32:05;;;;;;;35.33;20.65;;;;;;;;;;5054686;28;20386;-65
2022/12/14 12:34:31;;;;;;;33.35;20.35;;;;;;;;;;5054501;28;20136;-65
2022/12/14 12:36:59;;;;;;;34.33;19.80;;;;;;;;;;5054720;28;20131;-65
2022/12/14 12:39:51;;;;;;;33.42;19.98;;;;;;;;;;5054259;28;20055;-65
2022/12/14 12:42:33;;;;;;;35.88;20.80;;;;;;;;;;5054534;28;20135;-65
2022/12/14 12:45:21;;;;;;;35.35;19.80;;;;;;;;;;5053799;28;20083;-65
2022/12/14 12:48:11;;;;;;;36.38;21.00;;;;;;;;;;5054108;28;20094;-65
2022/12/14 12:50:46;;;;;;;36.90;20.65;;;;;;;;;;5054085;28;20053;-65
2022/12/14 12:53:17;;;;;;;36.72;21.52;;;;;;;;;;5054036;28;20049;-65
2022/12/14 12:55:46;;;;;;;37.65;21.98;;;;;;;;;;5054002;28;20049;-65
2022/12/14 12:58:23;;;;;;;40.65;23.15;;;;;;;;;;5054028;28;20139;-65
2022/12/14 13:00:54;;;;;;;42.22;23.40;;;;;;;;;;5054115;28;20118;-65
2022/12/14 13:03:20;;;;;;;38.97;22.52;;;;;;;;;;5053870;28;20045;-66
2022/12/14 13:05:47;;;;;;;40.88;23.23;;;;;;;;;;5054019;28;20053;-65
2022/12/14 13:08:21;;;;;;;43.40;24.08;;;;;;;;;;5054019;28;20452;-65
2022/12/14 13:10:48;;;;;;;43.28;24.38;;;;;;;;;;5053968;28;20166;-65
2022/12/14 13:13:37;;;;;;;42.63;25.13;;;;;;;;;;5053588;28;20049;-65
2022/12/14 13:16:25;;;;;;;44.60;24.35;;;;;;;;;;5053782;28;20048;-65
2022/12/14 13:18:56;;;;;;;46.58;25.73;;;;;;;;;;5053779;28;20059;-65
2022/12/14 13:21:42;;;;;;;47.35;25.85;;;;;;;;;;5053674;28;20068;-65
2022/12/14 13:24:16;;;;;;;47.35;25.80;;;;;;;;;;5053447;28;20049;-65
2022/12/14 13:26:46;;;;;;;;;;;;;;;;;;5053726;28;20053;-65
2022/12/14 13:29:31;;;;;;;46.92;25.77;;;;;;;;;;5053679;28;20439;-65
2022/12/14 13:32:03;;;;;;;46.47;25.23;;;;;;;;;;5053538;28;20124;-65
2022/12/14 13:34:48;;;;;;;42.22;23.75;;;;;;;;;;5053378;28;20087;-65
2022/12/14 13:37:23;;;;;;;39.25;22.48;;;;;;;;;;5053066;28;20136;-65
2022/12/14 13:40:08;;;;;;;41.25;22.63;;;;;;;;;;5053157;28;20095;-65
2022/12/14 13:42:50;;;;;;;38.83;21.10;;;;;;;;;;5053049;28;20543;-65
2022/12/14 13:45:22;;;;;;;37.83;20.85;;;;;;;;;;5053080;28;20049;-65
2022/12/14 13:47:52;;;;;;;36.40;20.58;;;;;;;;;;5053390;28;20059;-65
2022/12/14 13:50:31;;;;;;;36.42;19.10;;;;;;;;;;5053284;28;20049;-65
2022/12/14 13:53:13;;;;;;;36.25;20.02;;;;;;;;;;5052901;28;20045;-65
2022/12/14 13:55:54;;;;;;;37.95;20.55;;;;;;;;;;5052806;28;20131;-65
2022/12/14 13:58:25;;;;;;;71.13;35.00;;;;;;;;;;5051853;28;20127;-65
2022/12/14 14:01:03;;;;;;;87.13;41.05;;;;;;;;;;5052706;28;20080;-65
2022/12/14 14:03:35;;;;;;;117.72;56.53;;;;;;;;;;5053121;28;20072;-65
2022/12/14 14:06:08;;;;;;;64.90;32.80;;;;;;;;;;5052450;28;20075;-65
2022/12/14 14:08:35;;;;;;;58.28;29.55;;;;;;;;;;5052864;28;20103;-65
2022/12/14 14:11:22;;;;;;;35.05;17.88;;;;;;;;;;5052610;28;20462;-65
2022/12/14 14:14:25;;;;;;;31.05;17.08;;;;;;;;;;5052856;28;20056;-65
2022/12/14 14:17:14;;;;;;;27.85;14.80;;;;;;;;;;5042689;28;20128;-65
2022/12/14 14:19:41;;;;;;;27.50;14.65;;;;;;;;;;5052043;28;20049;-65
2022/12/14 14:22:17;;;;;;;28.33;15.32;;;;;;;;;;5052841;28;20139;-64
2022/12/14 14:25:00;;;;;;;26.40;14.23;;;;;;;;;;5052276;28;20049;-65
2022/12/14 14:27:29;;;;;;;28.25;14.65;;;;;;;;;;5052194;28;20103;-65
2022/12/14 14:29:56;;;;;;;25.50;14.77;;;;;;;;;;5052401;28;20077;-65
2022/12/14 14:32:23;;;;;;;26.63;14.35;;;;;;;;;;5052227;28;20077;-65
2022/12/14 14:34:49;;;;;;;32.08;18.17;;;;;;;;;;5052128;28;20091;-65
2022/12/14 14:37:19;;;;;;;31.05;18.15;;;;;;;;;;5051938;28;20136;-65
2022/12/14 14:40:04;;;;;;;27.63;16.00;;;;;;;;;;5052384;28;20140;-65
2022/12/14 14:42:49;;;;;;;29.63;17.40;;;;;;;;;;5052454;28;20056;-65
2022/12/14 14:45:24;;;;;;;30.95;17.42;;;;;;;;;;5052256;28;20485;-65
2022/12/14 14:47:55;;;;;;;28.10;15.85;;;;;;;;;;5052103;28;20464;-65
2022/12/14 14:50:28;;;;;;;30.27;16.65;;;;;;;;;;5051860;28;20506;-65
2022/12/14 14:52:56;;;;;;;35.55;20.05;;;;;;;;;;5050581;28;20473;-65
2022/12/14 14:55:34;;;;;;;58.80;30.60;;;;;;;;;;5051820;28;20069;-65
2022/12/14 14:58:21;;;;;;;72.82;38.33;;;;;;;;;;5051971;28;20080;-65